createdAt,value
2018-05-02T00:01:10.229Z,19.94
2018-05-02T00:03:36.028Z,20.02
2018-05-02T00:06:02.790Z,19.99
2018-05-02T00:08:28.589Z,20.03
2018-05-02T00:10:54.403Z,20.05
2018-05-02T00:13:21.083Z,20.05
2018-05-02T00:15:47.832Z,19.99
2018-05-02T00:18:13.632Z,19.96
2018-05-02T00:20:39.462Z,19.98
2018-05-02T00:23:05.264Z,19.98
2018-05-02T00:25:31.088Z,19.96
2018-05-02T00:27:57.718Z,19.94
2018-05-02T00:30:24.564Z,19.90
2018-05-02T00:32:51.276Z,19.99
2018-05-02T00:35:17.077Z,19.93
2018-05-02T00:37:43.081Z,19.80
2018-05-02T00:40:08.890Z,19.89
2018-05-02T00:42:35.511Z,19.89
2018-05-02T00:45:01.335Z,19.87
2018-05-02T00:47:27.172Z,19.92
2018-05-02T00:49:53.916Z,19.99
2018-05-02T00:52:19.713Z,19.88
2018-05-02T00:54:45.535Z,19.97
2018-05-02T00:57:11.333Z,19.93
2018-05-02T00:59:37.133Z,19.97
2018-05-02T01:02:03.887Z,19.89
2018-05-02T01:04:30.695Z,19.92
2018-05-02T01:06:57.437Z,19.96
2018-05-02T01:09:23.245Z,19.89
2018-05-02T01:11:49.052Z,19.95
2018-05-02T01:14:14.885Z,19.93
2018-05-02T01:16:40.703Z,19.93
2018-05-02T01:19:06.516Z,19.97
2018-05-02T01:21:33.224Z,19.92
2018-05-02T01:23:59.999Z,19.97
2018-05-02T01:26:25.802Z,19.93
2018-05-02T01:28:51.639Z,19.95
2018-05-02T01:31:17.441Z,19.92
2018-05-02T01:33:43.241Z,19.91
2018-05-02T01:36:09.040Z,19.84
2018-05-02T01:38:34.857Z,19.82
2018-05-02T01:41:01.939Z,19.80
2018-05-02T01:43:27.735Z,19.67
2018-05-02T01:45:53.537Z,19.70
2018-05-02T01:48:19.336Z,19.71
2018-05-02T01:50:45.131Z,19.73
2018-05-02T01:53:10.936Z,19.79
2018-05-02T01:55:36.753Z,19.81
2018-05-02T01:58:02.559Z,19.87
2018-05-02T02:00:28.390Z,19.88
2018-05-02T02:02:55.036Z,19.88
2018-05-02T02:05:20.877Z,19.81
2018-05-02T02:07:47.288Z,19.75
2018-05-02T02:10:13.124Z,19.80
2018-05-02T02:12:39.933Z,19.82
2018-05-02T02:15:05.780Z,19.79
2018-05-02T02:17:32.388Z,19.78
2018-05-02T02:19:58.187Z,19.80
2018-05-02T02:22:24.797Z,19.81
2018-05-02T02:24:51.537Z,19.80
2018-05-02T02:27:17.337Z,19.80
2018-05-02T02:29:43.808Z,19.79
2018-05-02T02:32:09.634Z,19.83
2018-05-02T02:34:36.354Z,19.76
2018-05-02T02:37:02.175Z,19.79
2018-05-02T02:39:27.972Z,19.77
2018-05-02T02:41:53.779Z,19.78
2018-05-02T02:44:20.478Z,19.82
2018-05-02T02:46:46.309Z,19.85
2018-05-02T02:49:13.108Z,19.83
2018-05-02T02:51:38.912Z,19.83
2018-05-02T02:54:04.713Z,19.78
2018-05-02T02:56:30.535Z,19.76
2018-05-02T02:58:56.394Z,19.79
2018-05-02T03:01:22.193Z,19.79
2018-05-02T03:03:48.008Z,19.80
2018-05-02T03:06:13.854Z,19.83
2018-05-02T03:08:39.741Z,19.80
2018-05-02T03:11:06.559Z,19.76
2018-05-02T03:13:33.292Z,19.76
2018-05-02T03:16:00.043Z,19.77
2018-05-02T03:18:26.644Z,19.86
2018-05-02T03:20:53.354Z,19.81
2018-05-02T03:23:19.161Z,19.75
2018-05-02T03:25:45.000Z,19.78
2018-05-02T03:28:11.869Z,19.79
2018-05-02T03:30:37.672Z,19.78
2018-05-02T03:33:03.546Z,19.76
2018-05-02T03:35:30.124Z,19.78
2018-05-02T03:37:56.808Z,19.76
2018-05-02T03:40:22.636Z,19.75
2018-05-02T03:42:49.274Z,19.74
2018-05-02T03:45:15.073Z,19.75
2018-05-02T03:47:40.912Z,19.77
2018-05-02T03:50:07.615Z,19.79
2018-05-02T03:52:33.512Z,19.77
2018-05-02T03:54:59.318Z,19.71
2018-05-02T03:57:25.117Z,19.74
2018-05-02T03:59:57.243Z,19.71
2018-05-02T04:02:29.264Z,19.65
2018-05-02T04:05:01.264Z,19.65
2018-05-02T04:07:27.073Z,19.65
2018-05-02T04:09:52.872Z,19.67
2018-05-02T04:12:18.688Z,19.74
2018-05-02T04:14:44.490Z,19.70
2018-05-02T04:17:10.288Z,19.74
2018-05-02T04:19:36.124Z,19.76
2018-05-02T04:22:01.921Z,19.75
2018-05-02T04:24:27.716Z,19.70
2018-05-02T04:26:53.524Z,19.73
2018-05-02T04:29:19.320Z,19.73
2018-05-02T04:31:45.956Z,19.69
2018-05-02T04:34:11.761Z,19.74
2018-05-02T04:36:37.568Z,19.78
2018-05-02T04:39:03.405Z,19.79
2018-05-02T04:41:29.233Z,19.72
2018-05-02T04:43:55.041Z,19.74
2018-05-02T04:46:20.844Z,19.75
2018-05-02T04:48:46.651Z,19.78
2018-05-02T04:51:12.452Z,19.77
2018-05-02T04:53:38.819Z,19.73
2018-05-02T04:56:04.625Z,19.73
2018-05-02T04:58:30.482Z,19.78
2018-05-02T05:00:57.243Z,19.72
2018-05-02T05:03:23.036Z,19.69
2018-05-02T05:05:48.831Z,19.68
2018-05-02T05:08:14.752Z,19.64
2018-05-02T05:10:40.584Z,19.68
2018-05-02T05:13:07.301Z,19.71
2018-05-02T05:15:34.253Z,19.68
2018-05-02T05:18:00.052Z,19.69
2018-05-02T05:20:25.857Z,19.68
2018-05-02T05:22:51.660Z,19.72
2018-05-02T05:25:18.264Z,19.73
2018-05-02T05:27:44.068Z,19.74
2018-05-02T05:30:10.073Z,19.91
2018-05-02T05:32:36.666Z,19.67
2018-05-02T05:35:02.474Z,19.69
2018-05-02T05:37:28.272Z,19.69
2018-05-02T05:39:54.072Z,19.69
2018-05-02T05:42:19.918Z,19.79
2018-05-02T05:44:45.766Z,19.74
2018-05-02T05:47:11.568Z,19.92
2018-05-02T05:49:37.368Z,19.76
2018-05-02T05:52:03.171Z,19.68
2018-05-02T05:54:29.196Z,19.85
2018-05-02T05:56:54.946Z,19.79
2018-05-02T05:59:20.861Z,19.82
2018-05-02T06:01:46.660Z,19.82
2018-05-02T06:04:12.462Z,19.83
2018-05-02T06:06:38.323Z,19.83
2018-05-02T06:09:04.113Z,19.88
2018-05-02T06:11:29.920Z,19.98
2018-05-02T06:13:55.727Z,19.92
2018-05-02T06:16:21.524Z,19.99
2018-05-02T06:18:47.370Z,19.80
2018-05-02T06:21:14.045Z,19.88
2018-05-02T06:23:40.040Z,19.87
2018-05-02T06:26:06.845Z,19.89
2018-05-02T06:28:33.556Z,19.88
2018-05-02T06:30:59.356Z,19.92
2018-05-02T06:33:25.185Z,20.10
2018-05-02T06:35:51.559Z,19.97
2018-05-02T06:38:18.336Z,20.00
2018-05-02T06:40:45.107Z,19.98
2018-05-02T06:43:11.850Z,19.89
2018-05-02T06:45:38.612Z,20.05
2018-05-02T06:48:05.344Z,19.93
2018-05-02T06:50:31.194Z,20.00
2018-05-02T06:52:56.996Z,20.15
2018-05-02T06:55:22.877Z,20.24
2018-05-02T06:57:49.657Z,20.23
2018-05-02T07:00:15.480Z,20.38
2018-05-02T07:02:41.285Z,20.36
2018-05-02T07:05:07.124Z,20.43
2018-05-02T07:07:32.945Z,20.58
2018-05-02T07:09:58.768Z,20.54
2018-05-02T07:12:24.565Z,20.61
2018-05-02T07:14:50.394Z,20.59
2018-05-02T07:17:16.228Z,20.65
2018-05-02T07:19:42.061Z,20.67
2018-05-02T07:22:08.836Z,20.61
2018-05-02T07:24:34.786Z,20.64
2018-05-02T07:27:00.584Z,20.69
2018-05-02T07:29:27.359Z,20.72
2018-05-02T07:31:53.168Z,20.71
2018-05-02T07:34:18.993Z,20.69
2018-05-02T07:36:45.900Z,20.77
2018-05-02T07:39:12.523Z,20.69
2018-05-02T07:41:38.357Z,20.74
2018-05-02T07:44:04.164Z,20.75
2018-05-02T07:46:29.964Z,20.80
2018-05-02T07:48:55.769Z,20.80
2018-05-02T07:51:21.599Z,20.78
2018-05-02T07:53:47.396Z,20.78
2018-05-02T07:56:13.196Z,20.77
2018-05-02T07:58:39.959Z,20.77
2018-05-02T08:01:05.764Z,20.80
2018-05-02T08:03:31.565Z,20.81
2018-05-02T08:05:57.373Z,20.80
2018-05-02T08:08:23.180Z,20.76
2018-05-02T08:10:48.989Z,20.75
2018-05-02T08:13:14.788Z,20.68
2018-05-02T08:15:40.586Z,20.74
2018-05-02T08:18:06.380Z,20.74
2018-05-02T08:20:33.189Z,20.69
2018-05-02T08:22:58.987Z,20.67
2018-05-02T08:25:24.793Z,20.65
2018-05-02T08:27:50.606Z,20.63
2018-05-02T08:30:17.424Z,20.63
2018-05-02T08:32:44.299Z,20.69
2018-05-02T08:35:10.084Z,20.60
2018-05-02T08:37:36.820Z,20.65
2018-05-02T08:40:02.632Z,20.69
2018-05-02T08:42:29.488Z,20.47
2018-05-02T08:44:55.288Z,20.47
2018-05-02T08:47:21.999Z,20.27
2018-05-02T08:49:47.808Z,20.50
2018-05-02T08:52:15.391Z,20.59
2018-05-02T08:54:42.212Z,20.53
2018-05-02T08:57:08.055Z,20.52
2018-05-02T08:59:34.005Z,20.58
2018-05-02T09:01:59.800Z,20.57
2018-05-02T09:04:26.584Z,20.52
2018-05-02T09:06:52.391Z,20.49
2018-05-02T09:09:19.212Z,20.51
2018-05-02T09:11:45.861Z,20.45
2018-05-02T09:14:12.624Z,20.52
2018-05-02T09:16:38.424Z,20.63
2018-05-02T09:19:05.751Z,20.52
2018-05-02T09:21:32.538Z,20.43
2018-05-02T09:23:58.368Z,20.54
2018-05-02T09:26:25.028Z,20.55
2018-05-02T09:28:50.852Z,20.52
2018-05-02T09:31:17.709Z,20.51
2018-05-02T09:33:43.513Z,20.61
2018-05-02T09:36:10.316Z,20.57
2018-05-02T09:38:37.060Z,20.60
2018-05-02T09:41:03.940Z,20.68
2018-05-02T09:43:29.741Z,20.54
2018-05-02T09:45:56.364Z,20.51
2018-05-02T09:48:23.141Z,20.28
2018-05-02T09:50:49.893Z,20.46
2018-05-02T09:53:15.701Z,20.57
2018-05-02T09:55:41.495Z,20.53
2018-05-02T09:58:07.350Z,20.46
2018-05-02T10:00:33.192Z,20.36
2018-05-02T10:02:59.849Z,20.36
2018-05-02T10:05:25.680Z,20.35
2018-05-02T10:07:51.483Z,20.47
2018-05-02T10:10:17.332Z,20.48
2018-05-02T10:12:44.110Z,20.37
2018-05-02T10:15:10.041Z,20.37
2018-05-02T10:17:35.843Z,20.28
2018-05-02T10:20:02.562Z,20.34
2018-05-02T10:22:29.429Z,20.23
2018-05-02T10:24:56.068Z,20.28
2018-05-02T10:27:22.629Z,20.09
2018-05-02T10:29:48.436Z,20.12
2018-05-02T10:32:15.051Z,20.23
2018-05-02T10:34:41.865Z,20.26
2018-05-02T10:37:07.665Z,20.27
2018-05-02T10:39:34.484Z,20.26
2018-05-02T10:42:00.286Z,20.25
2018-05-02T10:44:26.982Z,20.16
2018-05-02T10:46:52.784Z,20.29
2018-05-02T10:49:18.584Z,20.30
2018-05-02T10:51:44.408Z,20.30
2018-05-02T10:54:10.201Z,20.34
2018-05-02T10:56:37.004Z,20.27
2018-05-02T10:59:03.752Z,20.32
2018-05-02T11:01:29.540Z,20.26
2018-05-02T11:03:55.341Z,20.28
2018-05-02T11:06:21.358Z,20.31
2018-05-02T11:08:47.181Z,20.32
2018-05-02T11:11:13.917Z,20.30
2018-05-02T11:13:39.722Z,20.17
2018-05-02T11:16:05.724Z,20.01
2018-05-02T11:18:31.516Z,20.38
2018-05-02T11:20:57.401Z,20.15
2018-05-02T11:23:23.191Z,20.17
2018-05-02T11:25:48.992Z,20.32
2018-05-02T11:28:14.789Z,20.38
2018-05-02T11:30:40.592Z,20.45
2018-05-02T11:33:06.386Z,20.30
2018-05-02T11:35:40.017Z,20.42
2018-05-02T11:38:06.134Z,20.23
2018-05-02T11:40:31.993Z,20.31
2018-05-02T11:42:57.772Z,20.36
2018-05-02T11:45:23.577Z,20.34
2018-05-02T11:47:49.372Z,20.29
2018-05-02T11:50:15.163Z,20.25
2018-05-02T11:52:41.848Z,20.24
2018-05-02T11:55:08.464Z,20.26
2018-05-02T11:57:34.255Z,20.23
2018-05-02T12:00:00.092Z,20.27
2018-05-02T12:02:26.813Z,20.27
2018-05-02T12:04:53.648Z,20.36
2018-05-02T12:07:19.437Z,20.34
2018-05-02T12:09:45.228Z,20.28
2018-05-02T12:12:11.025Z,20.36
2018-05-02T12:14:36.825Z,20.38
2018-05-02T12:17:02.645Z,20.40
2018-05-02T12:19:28.460Z,20.34
2018-05-02T12:21:55.132Z,20.36
2018-05-02T12:24:20.931Z,20.34
2018-05-02T12:26:46.765Z,20.37
2018-05-02T12:29:12.560Z,20.42
2018-05-02T12:31:38.384Z,20.37
2018-05-02T12:34:04.180Z,20.49
2018-05-02T12:36:29.999Z,20.36
2018-05-02T12:38:55.810Z,20.36
2018-05-02T12:41:21.603Z,20.40
2018-05-02T12:43:47.409Z,20.46
2018-05-02T12:46:13.381Z,20.36
2018-05-02T12:48:39.176Z,20.45
2018-05-02T12:51:05.820Z,20.45
2018-05-02T12:53:32.637Z,20.39
2018-05-02T12:55:58.558Z,20.33
2018-05-02T12:58:24.387Z,20.32
2018-05-02T13:00:50.186Z,20.32
2018-05-02T13:03:16.017Z,20.37
2018-05-02T13:05:41.836Z,20.42
2018-05-02T13:08:07.765Z,20.40
2018-05-02T13:10:33.626Z,20.43
2018-05-02T13:12:59.432Z,20.46
2018-05-02T13:15:26.136Z,20.50
2018-05-02T13:17:52.875Z,20.42
2018-05-02T13:20:18.668Z,20.51
2018-05-02T13:22:44.464Z,20.49
2018-05-02T13:25:10.506Z,20.54
2018-05-02T13:27:37.124Z,20.55
2018-05-02T13:30:02.924Z,20.51
2018-05-02T13:32:28.721Z,20.48
2018-05-02T13:34:55.422Z,20.49
2018-05-02T13:37:21.219Z,20.53
2018-05-02T13:39:47.827Z,20.51
2018-05-02T13:42:14.484Z,20.51
2018-05-02T13:44:41.232Z,20.49
2018-05-02T13:47:07.028Z,20.47
2018-05-02T13:49:33.692Z,20.51
2018-05-02T13:52:00.448Z,20.46
2018-05-02T13:54:26.256Z,20.41
2018-05-02T13:56:52.840Z,20.42
2018-05-02T13:59:19.648Z,20.45
2018-05-02T14:01:46.152Z,20.43
2018-05-02T14:04:12.808Z,20.49
2018-05-02T14:06:38.626Z,20.49
2018-05-02T14:09:04.441Z,20.49
2018-05-02T14:11:31.208Z,20.51
2018-05-02T14:13:57.093Z,20.46
2018-05-02T14:16:23.800Z,20.46
2018-05-02T14:18:49.628Z,20.51
2018-05-02T14:21:15.435Z,20.43
2018-05-02T14:23:41.260Z,20.51
2018-05-02T14:26:07.146Z,20.50
2018-05-02T14:28:32.968Z,20.45
2018-05-02T14:30:58.763Z,20.51
2018-05-02T14:33:24.603Z,20.50
2018-05-02T14:35:50.426Z,20.50
2018-05-02T14:38:16.305Z,20.52
2018-05-02T14:40:42.048Z,20.52
2018-05-02T14:43:07.837Z,20.56
2018-05-02T14:45:33.676Z,20.54
2018-05-02T14:47:59.476Z,20.55
2018-05-02T14:50:25.311Z,20.56
2018-05-02T14:52:51.108Z,20.52
2018-05-02T14:55:16.916Z,20.45
2018-05-02T14:57:42.712Z,20.55
2018-05-02T15:00:08.537Z,20.56
2018-05-02T15:02:34.334Z,20.53
2018-05-02T15:05:00.138Z,20.52
2018-05-02T15:07:25.928Z,20.52
2018-05-02T15:09:52.796Z,20.52
2018-05-02T15:12:18.859Z,20.52
2018-05-02T15:14:45.596Z,20.52
2018-05-02T15:17:12.390Z,20.49
2018-05-02T15:19:39.174Z,20.50
2018-05-02T15:22:05.016Z,20.49
2018-05-02T15:24:31.825Z,20.52
2018-05-02T15:26:57.620Z,20.50
2018-05-02T15:29:24.364Z,20.51
2018-05-02T15:31:50.160Z,20.48
2018-05-02T15:34:15.992Z,20.52
2018-05-02T15:36:41.796Z,20.55
2018-05-02T15:39:08.503Z,20.53
2018-05-02T15:41:34.304Z,20.54
2018-05-02T15:44:00.943Z,20.52
2018-05-02T15:46:26.742Z,20.51
2018-05-02T15:48:53.473Z,20.51
2018-05-02T15:51:19.304Z,20.50
2018-05-02T15:53:45.096Z,20.49
2018-05-02T15:56:11.115Z,20.53
2018-05-02T15:58:37.001Z,20.50
2018-05-02T16:01:02.824Z,20.48
2018-05-02T16:03:28.748Z,20.49
2018-05-02T16:05:54.545Z,20.50
2018-05-02T16:08:21.407Z,20.54
2018-05-02T16:10:48.156Z,20.51
2018-05-02T16:13:13.951Z,20.25
2018-05-02T16:15:39.771Z,20.44
2018-05-02T16:18:05.564Z,20.46
2018-05-02T16:20:32.421Z,20.46
2018-05-02T16:22:59.060Z,20.51
2018-05-02T16:25:24.885Z,20.47
2018-05-02T16:27:50.875Z,20.46
2018-05-02T16:30:16.965Z,20.47
2018-05-02T16:32:42.792Z,20.50
2018-05-02T16:35:08.584Z,20.50
2018-05-02T16:37:34.372Z,20.45
2018-05-02T16:40:00.199Z,20.45
2018-05-02T16:42:26.868Z,20.48
2018-05-02T16:44:53.727Z,20.42
2018-05-02T16:47:19.532Z,20.35
2018-05-02T16:49:45.371Z,20.48
2018-05-02T16:52:11.164Z,20.59
2018-05-02T16:54:37.821Z,20.70
2018-05-02T16:57:03.615Z,20.77
2018-05-02T16:59:29.407Z,20.85
2018-05-02T17:01:55.318Z,20.88
2018-05-02T17:04:21.189Z,20.97
2018-05-02T17:06:47.908Z,21.00
2018-05-02T17:09:13.705Z,21.01
2018-05-02T17:11:39.514Z,20.98
2018-05-02T17:14:05.364Z,20.96
2018-05-02T17:16:31.201Z,20.99
2018-05-02T17:18:57.044Z,20.96
2018-05-02T17:21:22.868Z,20.96
2018-05-02T17:23:48.752Z,20.93
2018-05-02T17:26:14.556Z,20.94
2018-05-02T17:28:41.341Z,20.95
2018-05-02T17:31:07.140Z,20.89
2018-05-02T17:33:32.982Z,20.94
2018-05-02T17:35:58.918Z,20.93
2018-05-02T17:38:26.360Z,20.93
2018-05-02T17:40:52.307Z,20.89
2018-05-02T17:43:18.128Z,20.87
2018-05-02T17:45:44.141Z,20.89
2018-05-02T17:48:10.802Z,20.89
2018-05-02T17:50:37.560Z,20.93
2018-05-02T17:53:03.870Z,20.86
2018-05-02T17:55:29.669Z,20.86
2018-05-02T17:57:55.620Z,20.87
2018-05-02T18:00:22.489Z,20.85
2018-05-02T18:02:48.354Z,20.86
2018-05-02T18:05:14.155Z,20.88
2018-05-02T18:07:39.956Z,20.88
2018-05-02T18:10:05.764Z,20.84
2018-05-02T18:12:31.560Z,20.88
2018-05-02T18:14:57.369Z,20.89
2018-05-02T18:17:23.236Z,20.87
2018-05-02T18:19:49.033Z,20.83
2018-05-02T18:22:14.827Z,20.83
2018-05-02T18:24:40.628Z,20.77
2018-05-02T18:27:06.434Z,20.82
2018-05-02T18:29:32.338Z,20.78
2018-05-02T18:31:58.141Z,20.77
2018-05-02T18:34:23.969Z,20.77
2018-05-02T18:36:50.138Z,20.76
2018-05-02T18:39:15.952Z,20.73
2018-05-02T18:41:41.792Z,20.67
2018-05-02T18:44:07.708Z,20.62
2018-05-02T18:46:33.622Z,20.68
2018-05-02T18:48:59.462Z,20.64
2018-05-02T18:51:25.265Z,20.60
2018-05-02T18:53:51.187Z,20.63
2018-05-02T18:56:17.822Z,20.51
2018-05-02T18:58:43.954Z,20.55
2018-05-02T19:01:09.768Z,20.55
2018-05-02T19:03:35.717Z,20.53
2018-05-02T19:06:01.562Z,20.57
2018-05-02T19:08:27.550Z,20.57
2018-05-02T19:10:54.175Z,20.55
2018-05-02T19:13:20.507Z,20.46
2018-05-02T19:15:46.942Z,20.38
2018-05-02T19:18:19.062Z,20.41
2018-05-02T19:20:45.015Z,20.38
2018-05-02T19:23:11.264Z,20.34
2018-05-02T19:25:43.369Z,20.38
2018-05-02T19:28:09.244Z,20.39
2018-05-02T19:30:35.480Z,20.35
2018-05-02T19:33:07.648Z,20.38
2018-05-02T19:35:33.759Z,20.33
2018-05-02T19:37:59.712Z,20.37
2018-05-02T19:40:31.787Z,20.38
2018-05-02T19:46:00.195Z,20.24
2018-05-02T19:48:26.020Z,20.28
2018-05-02T19:50:58.906Z,20.46
2018-05-02T19:53:24.999Z,20.27
2018-05-02T19:55:50.817Z,20.44
2018-05-02T19:58:16.634Z,20.39
2018-05-02T20:00:48.598Z,20.34
2018-05-02T20:03:14.403Z,20.34
2018-05-02T20:05:40.337Z,20.30
2018-05-02T20:08:12.226Z,20.40
2018-05-02T20:10:45.333Z,20.35
2018-05-02T20:13:17.405Z,20.29
2018-05-02T20:15:43.234Z,20.30
2018-05-02T20:18:09.173Z,20.36
2018-05-02T20:20:35.235Z,20.39
2018-05-02T20:23:01.926Z,20.42
2018-05-02T20:25:27.894Z,20.33
2018-05-02T20:27:53.724Z,20.32
2018-05-02T20:30:19.615Z,20.35
2018-05-02T20:32:45.657Z,20.39
2018-05-02T20:35:11.525Z,20.34
2018-05-02T20:37:37.470Z,20.28
2018-05-02T20:40:03.284Z,20.35
2018-05-02T20:42:29.256Z,20.27
2018-05-02T20:44:55.126Z,20.25
2018-05-02T20:47:21.025Z,20.22
2018-05-02T20:49:46.917Z,20.22
2018-05-02T20:52:12.774Z,20.22
2018-05-02T20:54:38.684Z,20.25
2018-05-02T20:57:04.662Z,20.23
2018-05-02T20:59:30.506Z,20.27
2018-05-02T21:01:56.349Z,20.19
2018-05-02T21:04:23.214Z,20.26
2018-05-02T21:06:49.959Z,20.20
2018-05-02T21:09:16.537Z,20.19
2018-05-02T21:11:46.020Z,20.20
2018-05-02T21:14:11.853Z,20.13
2018-05-02T21:16:38.609Z,20.24
2018-05-02T21:19:04.568Z,20.14
2018-05-02T21:21:30.573Z,20.15
2018-05-02T21:23:56.409Z,20.13
2018-05-02T21:26:22.217Z,20.14
2018-05-02T21:28:48.828Z,20.15
2018-05-02T21:31:15.779Z,20.17
2018-05-02T21:33:42.654Z,20.18
2018-05-02T21:36:08.456Z,20.13
2018-05-02T21:38:34.262Z,20.15
2018-05-02T21:41:00.112Z,20.12
2018-05-02T21:43:25.985Z,20.18
2018-05-02T21:45:51.801Z,20.13
2018-05-02T21:48:17.628Z,20.14
2018-05-02T21:50:43.608Z,20.14
2018-05-02T21:53:09.420Z,20.12
2018-05-02T21:55:35.233Z,20.18
2018-05-02T21:58:01.061Z,20.06
2018-05-02T22:00:26.866Z,20.06
2018-05-02T22:02:52.666Z,20.17
2018-05-02T22:05:18.773Z,20.15
2018-05-02T22:07:44.449Z,20.12
2018-05-02T22:10:10.256Z,20.13
2018-05-02T22:12:36.173Z,20.12
2018-05-02T22:15:01.977Z,20.12
2018-05-02T22:17:27.812Z,20.14
2018-05-02T22:19:53.620Z,20.23
2018-05-02T22:22:19.420Z,20.22
2018-05-02T22:24:45.229Z,20.17
2018-05-02T22:27:11.289Z,20.25
2018-05-02T22:29:37.177Z,20.14
2018-05-02T22:32:03.007Z,20.04
2018-05-02T22:34:29.629Z,20.18
2018-05-02T22:36:55.428Z,20.13
2018-05-02T22:39:21.234Z,20.17
2018-05-02T22:41:47.140Z,20.21
2018-05-02T22:44:13.061Z,20.12
2018-05-02T22:46:42.036Z,20.18
2018-05-02T22:49:07.880Z,20.13
2018-05-02T22:51:33.729Z,20.12
2018-05-02T22:53:59.795Z,20.03
2018-05-02T22:56:25.644Z,20.13
2018-05-02T22:58:52.461Z,20.09
2018-05-02T23:01:18.387Z,20.04
2018-05-02T23:03:44.192Z,20.10
2018-05-02T23:06:10.897Z,20.13
2018-05-02T23:08:36.825Z,20.11
2018-05-02T23:11:02.687Z,20.22
2018-05-02T23:13:29.073Z,20.13
2018-05-02T23:15:54.877Z,20.14
2018-05-02T23:18:20.723Z,20.15
2018-05-02T23:20:46.555Z,20.00
2018-05-02T23:23:13.357Z,19.96
2018-05-02T23:25:39.172Z,20.10
2018-05-02T23:28:05.013Z,20.14
2018-05-02T23:30:30.808Z,20.11
2018-05-02T23:32:56.636Z,20.00
2018-05-02T23:35:22.433Z,20.11
2018-05-02T23:37:48.296Z,20.11
2018-05-02T23:40:14.101Z,20.09
2018-05-02T23:42:39.956Z,20.07
2018-05-02T23:45:06.486Z,19.97
2018-05-02T23:47:33.296Z,19.98
2018-05-02T23:49:59.193Z,19.98
2018-05-02T23:52:26.097Z,20.00
2018-05-02T23:54:52.620Z,20.10
2018-05-02T23:57:19.451Z,20.14
2018-05-02T23:59:45.330Z,20.13
